createdAt,value
2023-01-04T00:05:03.036Z,101303.63
2023-01-04T00:10:06.547Z,101292.88
2023-01-04T00:15:10.727Z,101278.56
2023-01-04T00:20:14.795Z,101278.22
2023-01-04T00:25:17.867Z,101267.97
2023-01-04T00:30:20.658Z,101261.19
2023-01-04T00:35:44.533Z,101263.00
2023-01-04T00:40:47.563Z,101232.69
2023-01-04T00:45:50.416Z,101248.47
2023-01-04T00:50:54.635Z,101225.72
2023-01-04T00:56:01.454Z,101217.91
2023-01-04T01:01:06.478Z,101205.16
2023-01-04T01:06:10.865Z,101196.69
2023-01-04T01:11:13.666Z,101201.16
2023-01-04T01:16:37.846Z,101192.72
2023-01-04T01:21:43.307Z,101195.22
2023-01-04T01:26:46.165Z,101186.47
2023-01-04T01:31:48.973Z,101186.69
2023-01-04T01:36:53.210Z,101188.44
2023-01-04T01:41:56.022Z,101181.72
2023-01-04T01:46:58.763Z,101177.72
2023-01-04T01:52:05.278Z,101152.50
2023-01-04T01:57:09.901Z,101153.13
2023-01-04T02:02:13.256Z,101134.25
2023-01-04T02:07:21.395Z,101129.88
2023-01-04T02:12:24.206Z,101124.56
2023-01-04T02:17:35.598Z,101114.22
2023-01-04T02:23:05.430Z,101105.16
2023-01-04T02:28:11.116Z,101098.19
2023-01-04T02:33:25.592Z,101091.94
2023-01-04T02:38:32.065Z,101091.13
2023-01-04T02:43:55.018Z,101067.56
2023-01-04T02:49:19.663Z,101072.66
2023-01-04T02:54:25.157Z,101070.69
2023-01-04T03:00:05.229Z,101042.41
2023-01-04T03:05:33.812Z,101036.88
2023-01-04T03:10:40.101Z,101031.66
2023-01-04T03:15:44.217Z,101021.13
2023-01-04T03:20:49.586Z,101021.03
2023-01-04T03:26:14.785Z,101011.31
2023-01-04T03:31:45.032Z,101007.88
2023-01-04T03:36:56.707Z,100995.69
2023-01-04T03:42:19.354Z,100978.69
2023-01-04T03:47:46.152Z,100979.81
2023-01-04T03:52:51.228Z,100976.28
2023-01-04T03:57:54.340Z,100958.03
2023-01-04T04:03:07.035Z,100945.91
2023-01-04T04:08:27.606Z,100932.44
2023-01-04T04:13:30.296Z,100907.00
2023-01-04T04:18:33.093Z,100897.28
2023-01-04T04:23:37.214Z,100892.78
2023-01-04T04:28:40.345Z,100888.19
2023-01-04T04:33:43.093Z,100885.38
2023-01-04T04:38:47.192Z,100871.25
2023-01-04T04:43:50.113Z,100861.75
2023-01-04T04:48:52.872Z,100860.69
2023-01-04T04:53:56.967Z,100852.56
2023-01-04T04:58:59.671Z,100837.72
2023-01-04T05:04:02.380Z,100837.72
2023-01-04T05:09:06.440Z,100826.94
2023-01-04T05:14:09.623Z,100820.91
2023-01-04T05:19:12.468Z,100812.22
2023-01-04T05:24:16.680Z,100808.91
2023-01-04T05:29:33.324Z,100790.63
2023-01-04T05:34:36.210Z,100787.00
2023-01-04T05:39:40.458Z,100787.72
2023-01-04T05:44:43.307Z,100768.38
2023-01-04T05:49:46.088Z,100759.81
2023-01-04T05:54:50.180Z,100745.72
2023-01-04T05:59:52.986Z,100752.75
2023-01-04T06:04:59.181Z,100732.13
2023-01-04T06:10:03.949Z,100744.59
2023-01-04T06:15:07.865Z,100747.34
2023-01-04T06:20:11.850Z,100742.50
2023-01-04T06:25:16.206Z,100736.09
2023-01-04T06:30:18.946Z,100723.50
2023-01-04T06:35:21.651Z,100714.47
2023-01-04T06:40:25.853Z,100705.47
2023-01-04T06:45:28.549Z,100700.00
2023-01-04T06:50:31.250Z,100697.41
2023-01-04T06:55:35.359Z,100693.00
2023-01-04T07:00:38.206Z,100684.81
2023-01-04T07:05:40.922Z,100672.56
2023-01-04T07:10:45.170Z,100667.50
2023-01-04T07:15:47.979Z,100648.50
2023-01-04T07:20:50.745Z,100645.53
2023-01-04T07:25:55.387Z,100626.66
2023-01-04T07:30:58.111Z,100612.16
2023-01-04T07:36:05.953Z,100629.84
2023-01-04T07:41:10.352Z,100611.81
2023-01-04T07:46:13.115Z,100612.75
2023-01-04T07:51:15.953Z,100607.91
2023-01-04T07:56:20.278Z,100603.25
2023-01-04T08:01:23.094Z,100624.53
2023-01-04T08:06:25.899Z,100610.28
2023-01-04T08:11:30.157Z,100611.22
2023-01-04T08:16:34.395Z,100615.84
2023-01-04T08:21:37.307Z,100580.28
2023-01-04T08:26:41.660Z,100582.75
2023-01-04T08:31:44.471Z,100563.41
2023-01-04T08:36:48.840Z,100539.81
2023-01-04T08:42:07.852Z,100530.69
2023-01-04T08:47:13.832Z,100508.63
2023-01-04T08:52:16.610Z,100529.50
2023-01-04T08:57:20.821Z,100538.25
2023-01-04T09:02:25.722Z,100551.84
2023-01-04T09:07:29.763Z,100521.31
2023-01-04T09:12:33.852Z,100525.41
2023-01-04T09:17:46.498Z,100531.97
2023-01-04T09:22:59.633Z,100505.16
2023-01-04T09:28:03.762Z,100492.63
2023-01-04T09:33:06.499Z,100488.63
2023-01-04T09:38:09.403Z,100494.03
2023-01-04T09:43:19.986Z,100501.88
2023-01-04T09:48:28.223Z,100481.22
2023-01-04T09:53:33.316Z,100476.97
2023-01-04T09:58:40.859Z,100482.28
2023-01-04T10:03:47.810Z,100478.63
2023-01-04T10:08:50.586Z,100471.41
2023-01-04T10:14:03.645Z,100445.38
2023-01-04T10:19:36.685Z,100473.19
2023-01-04T10:24:46.522Z,100466.78
2023-01-04T10:30:07.698Z,100447.53
2023-01-04T10:35:21.684Z,100435.47
2023-01-04T10:40:24.883Z,100421.03
2023-01-04T10:45:33.900Z,100419.50
2023-01-04T10:50:40.449Z,100412.94
2023-01-04T10:56:24.564Z,100404.69
2023-01-04T11:01:13.677Z,100390.50
2023-01-04T11:06:21.199Z,100398.34
2023-01-04T11:11:26.531Z,100393.28
2023-01-04T11:16:31.226Z,100375.91
2023-01-04T11:21:38.247Z,100365.00
2023-01-04T11:26:43.785Z,100355.25
2023-01-04T11:31:52.236Z,100338.34
2023-01-04T11:36:55.012Z,100308.19
2023-01-04T11:42:02.934Z,100277.63
2023-01-04T11:47:19.244Z,100298.59
2023-01-04T11:52:32.840Z,100296.38
2023-01-04T11:57:35.869Z,100303.16
2023-01-04T12:03:00.751Z,100311.50
2023-01-04T12:08:02.770Z,100280.56
2023-01-04T12:13:10.253Z,100270.81
2023-01-04T12:18:18.025Z,100274.44
2023-01-04T12:23:21.332Z,100276.94
2023-01-04T12:28:32.491Z,100257.03
2023-01-04T12:33:40.611Z,100248.97
2023-01-04T12:39:01.629Z,100266.75
2023-01-04T12:44:43.409Z,100232.59
2023-01-04T12:49:53.318Z,100233.97
2023-01-04T12:54:58.544Z,100243.50
2023-01-04T13:00:03.235Z,100242.81
2023-01-04T13:05:55.539Z,100229.31
2023-01-04T13:10:57.423Z,100193.34
2023-01-04T13:16:10.816Z,100204.56
2023-01-04T13:21:17.054Z,100203.56
2023-01-04T13:26:32.654Z,100185.91
2023-01-04T13:31:41.758Z,100179.72
2023-01-04T13:36:54.410Z,100165.53
2023-01-04T13:41:57.646Z,100154.75
2023-01-04T13:47:00.807Z,100146.25
2023-01-04T13:52:46.643Z,100132.56
2023-01-04T13:57:53.972Z,100117.97
2023-01-04T14:03:08.025Z,100114.09
2023-01-04T14:08:12.713Z,100106.09
2023-01-04T14:13:17.440Z,100122.47
2023-01-04T14:18:28.495Z,100114.91
2023-01-04T14:23:35.416Z,100135.63
2023-01-04T14:28:49.532Z,100134.00
2023-01-04T14:33:53.778Z,100117.22
2023-01-04T14:39:11.058Z,100121.34
2023-01-04T14:44:16.025Z,100123.94
2023-01-04T14:49:19.806Z,100094.72
2023-01-04T14:54:25.702Z,100112.50
2023-01-04T14:59:28.659Z,100101.59
2023-01-04T15:04:31.471Z,100088.06
2023-01-04T15:09:36.930Z,100095.19
2023-01-04T15:14:39.746Z,100080.06
2023-01-04T15:19:42.478Z,100069.81
2023-01-04T15:24:46.569Z,100061.81
2023-01-04T15:29:49.420Z,100055.44
2023-01-04T15:34:52.725Z,100050.75
2023-01-04T15:40:02.349Z,100060.09
2023-01-04T15:45:07.497Z,100066.72
2023-01-04T15:50:10.537Z,100068.09
2023-01-04T15:55:15.437Z,100052.72
2023-01-04T16:00:18.729Z,100013.81
2023-01-04T16:05:21.714Z,100022.19
2023-01-04T16:10:29.215Z,99989.78
2023-01-04T16:15:31.889Z,99996.84
2023-01-04T16:20:34.629Z,99999.59
2023-01-04T16:25:38.713Z,99974.00
2023-01-04T16:30:41.417Z,99985.22
2023-01-04T16:35:44.116Z,99987.41
2023-01-04T16:40:57.669Z,99984.88
2023-01-04T16:46:17.436Z,99983.28
2023-01-04T16:51:20.760Z,99978.13
2023-01-04T16:56:25.701Z,99958.63
2023-01-04T17:01:30.698Z,99960.13
2023-01-04T17:06:34.515Z,99930.31
2023-01-04T17:12:19.122Z,99941.34
2023-01-04T17:17:03.424Z,99925.28
2023-01-04T17:22:06.326Z,99927.97
2023-01-04T17:27:10.753Z,99934.25
2023-01-04T17:32:13.486Z,99927.56
2023-01-04T17:37:16.224Z,99928.25
2023-01-04T17:42:20.280Z,99925.63
2023-01-04T17:47:23.224Z,99901.22
2023-01-04T17:52:30.686Z,99904.38
2023-01-04T17:57:35.677Z,99903.22
2023-01-04T18:02:38.519Z,99890.28
2023-01-04T18:07:41.379Z,99886.00
2023-01-04T18:12:45.571Z,99873.81
2023-01-04T18:17:48.276Z,99890.97
2023-01-04T18:22:51.043Z,99869.34
2023-01-04T18:27:55.277Z,99855.41
2023-01-04T18:32:58.167Z,99850.16
2023-01-04T18:38:01.024Z,99843.78
2023-01-04T18:43:05.133Z,99833.97
2023-01-04T18:48:08.023Z,99836.91
2023-01-04T18:53:10.870Z,99824.44
2023-01-04T18:58:14.937Z,99837.94
2023-01-04T19:03:18.677Z,99860.59
2023-01-04T19:08:21.603Z,99805.16
2023-01-04T19:13:25.731Z,99835.50
2023-01-04T19:18:29.393Z,99831.91
2023-01-04T19:23:32.108Z,99849.97
2023-01-04T19:28:36.348Z,99859.16
2023-01-04T19:33:39.313Z,99848.50
2023-01-04T19:38:42.484Z,99849.63
2023-01-04T19:43:46.615Z,99865.53
2023-01-04T19:48:49.341Z,99828.97
2023-01-04T19:53:52.554Z,99811.44
2023-01-04T19:58:56.866Z,99825.53
2023-01-04T20:03:59.617Z,99818.66
2023-01-04T20:09:02.496Z,99814.72
2023-01-04T20:14:06.644Z,99847.34
2023-01-04T20:19:09.702Z,99812.56
2023-01-04T20:24:12.556Z,99802.38
2023-01-04T20:29:16.640Z,99795.69
2023-01-04T20:34:19.481Z,99798.31
2023-01-04T20:39:22.531Z,99749.09
2023-01-04T20:44:26.711Z,99754.97
2023-01-04T20:49:29.480Z,99755.63
2023-01-04T20:54:32.284Z,99763.38
2023-01-04T20:59:36.397Z,99772.72
2023-01-04T21:04:39.204Z,99746.59
2023-01-04T21:09:42.004Z,99756.63
2023-01-04T21:14:46.813Z,99749.16
2023-01-04T21:19:49.508Z,99753.84
2023-01-04T21:24:52.216Z,99737.44
2023-01-04T21:29:56.300Z,99728.06
2023-01-04T21:34:58.999Z,99723.81
2023-01-04T21:40:01.735Z,99720.72
2023-01-04T21:45:07.204Z,99722.72
2023-01-04T21:50:16.593Z,99720.94
2023-01-04T21:55:19.832Z,99726.56
2023-01-04T22:00:24.285Z,99744.88
2023-01-04T22:05:26.986Z,99737.78
2023-01-04T22:10:29.835Z,99783.72
2023-01-04T22:15:33.948Z,99773.16
2023-01-04T22:20:36.671Z,99755.91
2023-01-04T22:25:39.407Z,99761.81
2023-01-04T22:30:43.511Z,99775.28
2023-01-04T22:35:46.403Z,99765.75
2023-01-04T22:40:49.223Z,99762.31
2023-01-04T22:46:00.119Z,99791.25
2023-01-04T22:51:06.684Z,99771.34
2023-01-04T22:56:20.327Z,99759.69
2023-01-04T23:01:27.404Z,99768.56
2023-01-04T23:06:31.335Z,99757.41
2023-01-04T23:11:35.511Z,99766.41
2023-01-04T23:16:39.814Z,99780.06
2023-01-04T23:21:43.123Z,99736.31
2023-01-04T23:26:47.155Z,99728.78
2023-01-04T23:31:51.317Z,99717.44
2023-01-04T23:36:54.131Z,99721.53
2023-01-04T23:41:57.002Z,99725.81
2023-01-04T23:52:06.473Z,99708.25
2023-01-04T23:57:09.205Z,99745.72
